Time;durP1;ratioP1;P1;durP2;ratioP2;P2;SDS_P1;SDS_P2;PMS_P1;PMS_P2;Temp;Humidity;BMP_temperature;BMP_pressure;BME280_temperature;BME280_humidity;BME280_pressure;Samples;Min_cycle;Max_cycle;Signal;HPM_P1;HPM_P2
2022/02/02 00:01:59;;;;;;;48.30;5.82;;;;;;;7.94;80.48;100968.44;5110248;28;20044;-62
2022/02/02 00:04:30;;;;;;;49.55;5.90;;;;;;;8.06;79.55;100972.69;5107365;28;20047;-62
2022/02/02 00:07:37;;;;;;;49.83;6.15;;;;;;;7.93;80.77;100974.69;5110151;28;20488;-62
2022/02/02 00:09:55;;;;;;;50.97;5.38;;;;;;;7.92;79.78;100980.94;5110231;28;20046;-63
2022/02/02 00:12:38;;;;;;;45.03;5.95;;;;;;;7.79;80.10;101002.28;5110146;28;20051;-62
2022/02/02 00:20:57;;;;;;;49.38;6.20;;;;;;;7.74;78.93;100997.38;5130239;28;20044;-62
2022/02/02 00:23:30;;;;;;;40.22;5.93;;;;;;;7.65;79.58;101012.19;5131352;27;20480;-63
2022/02/02 00:25:59;;;;;;;47.25;6.13;;;;;;;7.67;80.24;101022.63;5131565;27;20077;-62
2022/02/02 00:28:30;;;;;;;46.80;6.28;;;;;;;7.64;79.65;101017.59;5130076;28;20560;-63
2022/02/02 00:31:01;;;;;;;42.53;5.28;;;;;;;7.59;80.40;101004.78;5129190;27;20039;-63
2022/02/02 00:33:33;;;;;;;54.67;6.20;;;;;;;7.52;80.95;101022.09;5130088;28;20084;-63
2022/02/02 00:36:09;;;;;;;36.65;5.75;;;;;;;7.56;80.72;101022.69;5131150;27;20138;-63
2022/02/02 00:38:36;;;;;;;45.88;6.75;;;;;;;7.48;81.20;101031.25;5131616;28;20039;-63
2022/02/02 00:41:03;;;;;;;52.42;6.05;;;;;;;7.45;81.82;101024.41;5129845;28;20096;-63
2022/02/02 00:43:30;;;;;;;53.47;6.88;;;;;;;7.40;81.55;101029.22;5131197;27;20043;-63
2022/02/02 00:46:07;;;;;;;46.10;6.38;;;;;;;7.57;81.96;101022.56;5130813;28;20032;-62
2022/02/02 00:48:35;;;;;;;44.47;6.18;;;;;;;7.55;82.03;101021.00;5131263;28;20392;-63
2022/02/02 00:51:02;;;;;;;45.47;6.60;;;;;;;7.43;81.74;101020.22;5130745;28;20403;-62
2022/02/02 00:53:29;;;;;;;46.97;6.70;;;;;;;7.45;82.44;101026.22;5131029;28;20112;-62
2022/02/02 00:55:56;;;;;;;39.13;5.97;;;;;;;7.49;81.81;101023.19;5130341;28;20078;-62
2022/02/02 00:58:22;;;;;;;38.25;5.72;;;;;;;7.52;82.23;101029.19;5130734;27;20039;-62
2022/02/02 01:00:49;;;;;;;45.08;5.80;;;;;;;7.48;82.07;101026.78;5112141;28;20048;-63
2022/02/02 01:03:16;;;;;;;54.67;7.68;;;;;;;7.44;83.22;101030.66;5127554;28;20043;-64
2022/02/02 01:05:42;;;;;;;60.67;6.05;;;;;;;7.31;82.79;101035.25;5111053;28;20053;-63
2022/02/02 01:08:53;;;;;;;45.55;6.55;;;;;;;7.24;83.23;101039.34;5130336;27;20048;-63
2022/02/02 01:11:14;;;;;;;49.20;6.03;;;;;;;7.32;82.64;101034.31;5123398;28;20038;-63
2022/02/02 01:19:27;;;;;;;46.20;6.00;;;;;;;7.15;82.87;101035.69;5129397;28;20043;-63
2022/02/02 01:22:15;;;;;;;40.78;6.18;;;;;;;7.22;83.58;101026.31;5130084;28;20100;-63
2022/02/02 01:27:51;;;;;;;42.65;5.75;;;;;;;7.30;81.96;101029.13;5117147;27;20384;-63
2022/02/02 01:30:15;;;;;;;57.80;6.30;;;;;;;7.19;83.25;101020.44;5106650;28;20047;-63
2022/02/02 01:32:42;;;;;;;56.53;6.38;;;;;;;7.28;82.74;101039.00;5111734;28;20048;-63
2022/02/02 01:35:14;;;;;;;55.70;6.07;;;;;;;7.24;82.44;101029.66;5103649;28;20056;-63
2022/02/02 01:37:46;;;;;;;50.05;6.28;;;;;;;7.23;82.07;101035.06;5114866;28;20039;-63
2022/02/02 01:40:22;;;;;;;53.15;6.65;;;;;;;7.49;82.27;101046.09;5116469;28;20075;-63
2022/02/02 01:43:00;;;;;;;55.83;6.25;;;;;;;7.42;82.37;101055.50;5115072;28;20051;-63
2022/02/02 01:45:35;;;;;;;52.53;6.97;;;;;;;7.32;82.42;101054.59;5116044;28;20579;-63
2022/02/02 01:48:19;;;;;;;53.70;6.28;;;;;;;7.23;82.40;101041.16;5114876;28;20036;-63
2022/02/02 01:53:50;;;;;;;43.70;5.35;;;;;;;7.57;80.85;101048.13;5115880;28;20031;-63
2022/02/02 01:56:18;;;;;;;45.28;6.13;;;;;;;7.61;80.93;101047.72;5115945;28;20039;-63
2022/02/02 01:59:49;;;;;;;41.65;5.65;;;;;;;7.58;80.80;101053.25;5114855;28;20073;-63
2022/02/02 02:01:32;;;;;;;65.13;6.63;;;;;;;7.55;80.54;101066.72;5115869;28;20123;-63
2022/02/02 02:03:59;;;;;;;57.60;6.35;;;;;;;7.57;81.51;101079.81;5112499;28;20055;-64
2022/02/02 02:06:26;;;;;;;42.53;5.85;;;;;;;7.73;80.00;101067.03;5115900;28;20048;-63
2022/02/02 02:08:54;;;;;;;43.90;7.30;;;;;;;7.65;80.02;101061.53;5115854;28;20100;-63
2022/02/02 02:11:22;;;;;;;47.00;5.60;;;;;;;7.64;80.83;101065.09;5115545;28;20123;-63
2022/02/02 02:16:34;;;;;;;46.63;5.93;;;;;;;7.42;82.22;101050.22;5130278;27;20398;-63
2022/02/02 02:19:01;;;;;;;49.50;6.05;;;;;;;7.31;82.36;101059.00;5109621;28;20411;-63
2022/02/02 02:21:27;;;;;;;42.33;5.32;;;;;;;7.44;82.49;101058.84;5110774;28;20565;-63
2022/02/02 02:23:54;;;;;;;51.22;6.15;;;;;;;7.29;82.48;101076.75;5109701;28;20044;-63
2022/02/02 02:26:24;;;;;;;46.38;7.07;;;;;;;7.35;82.11;101078.06;5110838;28;20051;-62
2022/02/02 02:31:55;;;;;;;46.65;6.07;;;;;;;7.46;81.75;101072.78;5109554;28;20510;-62
2022/02/02 02:39:59;;;;;;;43.78;6.03;;;;;;;7.43;81.02;101059.81;5126123;27;20119;-64
2022/02/02 02:56:21;;;;;;;35.13;5.90;;;;;;;7.46;80.68;101075.41;5110360;28;20118;-64
2022/02/02 02:59:00;;;;;;;44.78;5.80;;;;;;;7.25;80.95;101076.19;5111090;28;20093;-64
2022/02/02 03:01:49;;;;;;;53.10;6.22;;;;;;;7.21;81.28;101093.22;5110496;28;20072;-65
2022/02/02 03:32:38;;;;;;;45.45;5.50;;;;;;;7.02;81.25;101093.00;5129176;27;20093;-63
2022/02/02 03:35:07;;;;;;;49.58;6.05;;;;;;;7.16;81.18;101100.66;5107240;28;20051;-63
2022/02/02 03:51:36;;;;;;;53.47;6.30;;;;;;;7.19;81.14;101097.78;5094519;28;20048;-63
2022/02/02 03:54:26;;;;;;;46.92;5.65;;;;;;;7.24;80.15;101098.25;5096126;28;20062;-64
2022/02/02 03:57:22;;;;;;;59.15;8.77;;;;;;;7.32;79.95;101116.13;5094762;28;20039;-63
2022/02/02 03:59:47;;;;;;;53.65;6.05;;;;;;;7.33;79.68;101101.97;5095797;28;20048;-63
2022/02/02 04:07:51;;;;;;;46.67;6.35;;;;;;;7.34;79.01;101122.09;5115882;28;20511;-63
2022/02/02 04:10:18;;;;;;;49.07;6.00;;;;;;;7.39;79.26;101111.19;5116164;27;20043;-63
2022/02/02 04:13:06;;;;;;;45.67;6.40;;;;;;;7.28;79.47;101115.53;5116060;28;20040;-63
2022/02/02 04:37:49;;;;;;;46.80;6.07;;;;;;;7.23;79.31;101125.59;5116209;27;20120;-65
2022/02/02 04:54:19;;;;;;;56.83;7.28;;;;;;;7.40;78.49;101144.53;5151534;27;20050;-65
2022/02/02 05:03:07;;;;;;;46.63;6.47;;;;;;;7.46;77.84;101142.25;5150972;27;20134;-64
2022/02/02 05:19:26;;;;;;;52.28;6.60;;;;;;;7.24;79.07;101158.97;5109510;28;20052;-62
2022/02/02 05:41:11;;;;;;;62.35;6.28;;;;;;;7.26;79.19;101169.41;5130054;27;20354;-66
2022/02/02 05:41:52;;;;;;;40.05;5.68;;;;;;;7.22;79.75;101182.00;5121672;27;20491;-63
2022/02/02 05:44:33;;;;;;;51.33;6.32;;;;;;;7.26;78.80;101185.22;5109590;28;20044;-63
2022/02/02 05:52:26;;;;;;;53.47;6.07;;;;;;;7.18;79.80;101191.09;5092326;28;20044;-63
2022/02/02 05:54:53;;;;;;;52.42;6.63;;;;;;;7.17;79.49;101202.63;5092444;28;20036;-63
2022/02/02 05:57:20;;;;;;;45.50;6.00;;;;;;;7.23;79.42;101198.66;5110501;28;20131;-63
2022/02/02 05:59:49;;;;;;;47.75;6.03;;;;;;;7.26;79.89;101191.34;5109059;28;20036;-63
2022/02/02 06:02:24;;;;;;;56.45;6.93;;;;;;;7.23;79.99;101220.59;5108864;28;20044;-63
2022/02/02 06:04:52;;;;;;;64.72;7.60;;;;;;;7.19;80.36;101210.44;5100883;28;20066;-63
2022/02/02 06:07:19;;;;;;;53.83;6.30;;;;;;;7.34;79.35;101216.28;5109547;28;20056;-63
2022/02/02 06:09:49;;;;;;;55.42;7.30;;;;;;;7.19;80.00;101218.34;5109965;28;20043;-63
2022/02/02 06:12:18;;;;;;;49.22;7.10;;;;;;;7.16;80.61;101219.41;5108980;28;20047;-63
2022/02/02 06:14:49;;;;;;;50.03;6.63;;;;;;;7.23;79.51;101225.88;5108802;28;20438;-63
2022/02/02 06:17:16;;;;;;;49.15;6.53;;;;;;;7.21;79.94;101233.09;5096382;28;20484;-63
2022/02/02 06:19:43;;;;;;;35.83;5.72;;;;;;;7.22;80.24;101221.56;5108727;28;20483;-63
2022/02/02 06:22:16;;;;;;;51.20;7.47;;;;;;;7.48;78.38;101222.16;5108385;28;20510;-63
2022/02/02 06:25:03;;;;;;;42.08;5.57;;;;;;;7.38;79.65;101237.03;5109832;28;20441;-64
2022/02/02 06:27:33;;;;;;;51.72;6.18;;;;;;;7.38;78.58;101241.47;5109593;28;20050;-63
2022/02/02 06:30:05;;;;;;;44.00;7.32;;;;;;;7.42;79.46;101229.69;5109428;28;20515;-63
2022/02/02 06:32:47;;;;;;;54.03;6.70;;;;;;;7.44;78.83;101243.63;5097812;28;20039;-63
2022/02/02 06:35:15;;;;;;;51.95;6.25;;;;;;;7.51;79.55;101244.81;5119188;27;20044;-63
2022/02/02 06:37:44;;;;;;;43.92;6.60;;;;;;;7.40;80.21;101235.09;5108506;28;20109;-63
2022/02/02 06:40:12;;;;;;;39.22;5.57;;;;;;;7.31;80.27;101233.19;5110754;28;20043;-63
2022/02/02 06:42:40;;;;;;;50.67;6.78;;;;;;;7.13;81.08;101237.28;5116414;28;20052;-63
2022/02/02 06:45:09;;;;;;;48.15;6.30;;;;;;;7.16;81.45;101235.22;5116131;28;20047;-63
2022/02/02 06:47:38;;;;;;;52.65;6.65;;;;;;;7.33;79.98;101243.63;5115859;28;20084;-64
2022/02/02 06:50:42;;;;;;;52.05;5.85;;;;;;;7.24;80.31;101251.31;5115713;28;20064;-63
2022/02/02 06:53:21;;;;;;;50.72;7.25;;;;;;;7.07;81.49;101257.06;5115728;28;20059;-63
2022/02/02 06:56:13;;;;;;;50.20;7.22;;;;;;;7.20;81.65;101256.94;5113367;28;20047;-63
2022/02/02 06:58:57;;;;;;;;;;;;;;;7.20;81.66;101254.31;5092951;28;20254;-63
2022/02/02 07:01:42;;;;;;;48.83;6.10;;;;;;;7.25;81.16;101268.81;5079827;28;19924;-63
2022/02/02 07:04:27;;;;;;;44.13;6.93;;;;;;;7.06;82.50;101261.50;5043561;28;20066;-64
2022/02/02 07:07:10;;;;;;;53.70;6.10;;;;;;;7.33;80.51;101277.94;5093039;28;20064;-63
2022/02/02 07:10:02;;;;;;;45.35;6.35;;;;;;;7.33;80.54;101270.03;5093247;28;20060;-64
2022/02/02 07:12:50;;;;;;;49.15;6.53;;;;;;;7.07;81.46;101278.16;5093846;28;20047;-64
2022/02/02 07:15:26;;;;;;;44.30;6.25;;;;;;;7.13;81.46;101284.75;5094177;28;20044;-64
2022/02/02 07:29:04;;;;;;;52.25;6.78;;;;;;;7.20;81.88;101315.00;5094800;28;20401;-64
2022/02/02 07:31:44;;;;;;;61.92;7.68;;;;;;;7.13;81.93;101324.34;5074546;28;20062;-64
2022/02/02 07:34:41;;;;;;;54.67;7.20;;;;;;;7.08;82.38;101322.91;5093643;28;20048;-64
2022/02/02 07:37:12;;;;;;;52.38;6.32;;;;;;;7.07;82.07;101321.22;5112254;28;20123;-64
2022/02/02 07:39:43;;;;;;;55.30;7.22;;;;;;;6.96;82.51;101321.19;5105685;28;20036;-64
2022/02/02 07:42:11;;;;;;;45.72;5.65;;;;;;;7.01;81.79;101326.97;5097413;28;20048;-63
2022/02/02 07:44:41;;;;;;;41.90;5.65;;;;;;;6.97;81.84;101329.94;5087626;28;20123;-63
2022/02/02 07:47:11;;;;;;;50.72;6.53;;;;;;;6.99;82.17;101338.59;5093311;28;20051;-64
2022/02/02 07:49:49;;;;;;;52.22;6.30;;;;;;;7.02;82.33;101338.34;5093109;28;20397;-65
2022/02/02 07:52:19;;;;;;;47.50;6.03;;;;;;;6.94;81.91;101325.75;5092896;28;20067;-64
2022/02/02 07:54:48;;;;;;;34.05;5.45;;;;;;;7.08;82.20;101332.63;5077034;28;20044;-65
2022/02/02 07:57:24;;;;;;;38.92;5.55;;;;;;;6.98;81.76;101337.75;5077470;28;20078;-65
2022/02/02 08:02:34;;;;;;;44.33;7.67;;;;;;;7.00;81.85;101342.91;5093326;28;20491;-65
2022/02/02 08:05:02;;;;;;;52.58;6.50;;;;;;;6.95;82.90;101345.91;5091307;28;20058;-65
2022/02/02 08:07:36;;;;;;;53.33;6.47;;;;;;;7.10;82.42;101349.16;5094359;28;20048;-65
2022/02/02 08:10:21;;;;;;;55.83;6.88;;;;;;;7.04;82.38;101345.22;5093086;28;20068;-65
2022/02/02 08:12:57;;;;;;;45.97;6.97;;;;;;;7.15;81.87;101351.44;5093119;28;20043;-65
2022/02/02 08:15:28;;;;;;;58.85;10.23;;;;;;;6.97;82.45;101356.31;5094138;28;20556;-65
2022/02/02 08:17:55;;;;;;;58.63;12.63;;;;;;;7.07;81.51;101365.22;5094111;28;20040;-64
2022/02/02 08:20:23;;;;;;;51.78;10.68;;;;;;;7.15;80.89;101367.28;5094144;28;20032;-64
2022/02/02 08:22:50;;;;;;;52.63;9.80;;;;;;;7.17;81.51;101368.00;5076133;28;20082;-64
2022/02/02 08:25:26;;;;;;;53.88;8.20;;;;;;;7.18;81.71;101369.69;5094222;28;20044;-64
2022/02/02 08:27:57;;;;;;;46.15;8.02;;;;;;;7.11;81.21;101370.16;5093806;28;20051;-65
2022/02/02 08:30:27;;;;;;;50.78;6.80;;;;;;;7.40;80.94;101388.19;5092130;28;20052;-65
2022/02/02 08:32:59;;;;;;;57.60;6.40;;;;;;;7.46;80.17;101389.56;5092769;28;20126;-65
2022/02/02 08:35:34;;;;;;;59.80;7.72;;;;;;;7.61;79.08;101384.88;5094004;28;20055;-65
2022/02/02 08:38:13;;;;;;;49.65;6.78;;;;;;;7.59;78.97;101386.81;5075912;28;20415;-64
2022/02/02 08:40:47;;;;;;;41.55;5.68;;;;;;;7.74;78.62;101390.06;5092061;28;20614;-64
2022/02/02 08:43:21;;;;;;;50.05;6.78;;;;;;;7.76;78.36;101406.63;5087162;28;20040;-64
2022/02/02 08:45:49;;;;;;;47.25;8.30;;;;;;;7.76;78.43;101411.91;5093391;28;20488;-64
2022/02/02 08:48:22;;;;;;;51.40;6.68;;;;;;;7.63;78.74;101420.75;5092137;28;20040;-65
2022/02/02 08:50:54;;;;;;;51.22;6.38;;;;;;;7.55;78.79;101422.31;5093261;28;20463;-64
2022/02/02 09:01:07;;;;;;;49.40;6.68;;;;;;;7.80;78.40;101437.09;5127021;27;20114;-65
2022/02/02 09:06:20;;;;;;;44.92;6.30;;;;;;;7.87;78.21;101446.22;5110539;28;20055;-65
2022/02/02 09:08:50;;;;;;;47.92;8.00;;;;;;;7.91;77.88;101445.03;5110674;28;20506;-65
2022/02/02 09:25:14;;;;;;;43.10;5.85;;;;;;;7.97;77.33;101467.50;5129687;28;20122;-65
2022/02/02 09:36:06;;;;;;;49.25;7.53;;;;;;;8.40;77.20;101449.13;5123092;28;20089;-65
2022/02/02 09:38:33;;;;;;;52.75;7.15;;;;;;;8.45;76.82;101452.25;5131569;27;20038;-65
2022/02/02 09:43:52;;;;;;;45.95;8.00;;;;;;;8.15;78.56;101452.00;5144451;27;20056;-64
2022/02/02 09:46:22;;;;;;;51.72;8.15;;;;;;;8.21;79.33;101451.53;5148188;27;20142;-65
2022/02/02 09:49:08;;;;;;;63.70;7.65;;;;;;;8.39;79.35;101451.88;5150791;27;20134;-67
2022/02/02 09:51:42;;;;;;;51.50;7.50;;;;;;;8.35;78.35;101461.00;5115362;27;20051;-65
2022/02/02 09:59:28;;;;;;;47.63;7.50;;;;;;;8.42;78.21;101468.38;5084775;27;20137;-65
2022/02/02 10:02:31;;;;;;;58.55;7.30;;;;;;;8.60;78.20;101481.94;5068603;28;20122;-65
2022/02/02 10:05:07;;;;;;;52.13;6.78;;;;;;;8.42;78.51;101478.09;5048403;28;20053;-65
2022/02/02 10:15:35;;;;;;;68.38;7.72;;;;;;;8.17;79.14;101497.69;5128980;27;20764;-65
2022/02/02 10:18:10;;;;;;;59.75;8.13;;;;;;;8.17;79.08;101508.25;5136301;27;20048;-64
2022/02/02 10:20:37;;;;;;;58.80;8.82;;;;;;;8.08;79.66;101507.97;5112553;27;20043;-64
2022/02/02 10:23:06;;;;;;;63.13;8.98;;;;;;;8.07;79.98;101508.94;5128463;27;20051;-64
2022/02/02 10:25:43;;;;;;;59.50;7.63;;;;;;;8.05;79.59;101510.84;5130705;27;20119;-64
2022/02/02 10:28:15;;;;;;;60.90;8.20;;;;;;;8.13;80.10;101517.34;5130470;27;20039;-65
2022/02/02 10:30:46;;;;;;;56.72;7.45;;;;;;;8.10;79.38;101513.16;5128897;27;20043;-64
2022/02/02 10:33:16;;;;;;;59.15;7.93;;;;;;;8.21;79.64;101507.03;5130793;27;20047;-65
2022/02/02 10:35:46;;;;;;;53.22;8.27;;;;;;;8.17;79.88;101511.72;5121930;27;20036;-65
2022/02/02 10:38:20;;;;;;;45.50;6.60;;;;;;;8.21;79.85;101518.44;5128020;27;20417;-64
2022/02/02 10:40:55;;;;;;;58.75;7.63;;;;;;;8.27;79.00;101517.13;5129476;27;20042;-65
2022/02/02 10:43:37;;;;;;;55.05;8.05;;;;;;;8.27;78.68;101525.06;5128691;27;20697;-65
2022/02/02 10:46:21;;;;;;;52.38;6.93;;;;;;;8.25;78.70;101526.97;5122528;27;20073;-62
2022/02/02 10:48:56;;;;;;;51.00;7.28;;;;;;;8.14;79.82;101519.88;5123389;27;20071;-63
2022/02/02 10:51:33;;;;;;;44.88;6.97;;;;;;;8.23;79.42;101523.63;5123720;27;20500;-65
2022/02/02 10:57:07;;;;;;;56.07;8.60;;;;;;;8.68;77.84;101530.69;5116912;27;20059;-64
2022/02/02 11:07:59;;;;;;;51.83;9.07;;;;;;;8.88;76.76;101545.84;5111897;27;20035;-64
2022/02/02 11:10:28;;;;;;;53.80;9.40;;;;;;;9.03;76.40;101541.94;5117239;27;20040;-64
2022/02/02 11:12:56;;;;;;;66.55;9.30;;;;;;;9.34;74.65;101541.25;5118333;27;20047;-64
2022/02/02 11:15:31;;;;;;;49.88;8.45;;;;;;;9.26;75.13;101539.25;5122212;28;20047;-64
2022/02/02 11:18:07;;;;;;;52.80;8.07;;;;;;;9.19;75.35;101535.41;5116679;27;20039;-64
2022/02/02 11:20:38;;;;;;;76.57;9.75;;;;;;;9.89;74.03;101530.50;5125192;27;20168;-64
2022/02/02 11:23:06;;;;;;;55.60;8.35;;;;;;;11.70;66.98;101521.59;5116455;27;20044;-64
2022/02/02 11:25:35;;;;;;;55.72;8.57;;;;;;;11.76;65.83;101526.31;5105579;28;20087;-64
2022/02/02 11:28:06;;;;;;;46.40;6.35;;;;;;;11.93;65.25;101527.44;5112847;27;20039;-64
2022/02/02 11:30:36;;;;;;;44.03;7.20;;;;;;;12.76;61.92;101546.16;5105282;27;20051;-65
2022/02/02 11:33:22;;;;;;;46.28;7.03;;;;;;;14.17;57.37;101531.22;5094449;28;20051;-63
2022/02/02 11:35:52;;;;;;;47.30;6.75;;;;;;;12.01;61.90;101542.69;5108363;27;20068;-65
2022/02/02 11:38:37;;;;;;;52.35;8.10;;;;;;;11.22;65.32;101535.72;5106767;28;20035;-65
2022/02/02 11:41:34;;;;;;;49.95;7.93;;;;;;;10.93;65.93;101540.03;5095154;28;20499;-65
2022/02/02 11:47:30;;;;;;;47.40;7.43;;;;;;;10.83;67.02;101533.84;5118952;27;20384;-65
2022/02/02 11:52:41;;;;;;;60.67;8.20;;;;;;;11.14;64.83;101531.94;5116731;27;20355;-65
2022/02/02 11:58:01;;;;;;;59.92;9.85;;;;;;;11.85;62.28;101536.09;5126717;27;20762;-63
2022/02/02 12:00:36;;;;;;;52.65;9.07;;;;;;;11.00;63.92;101536.81;5127328;28;20423;-63
2022/02/02 12:09:04;;;;;;;53.05;7.05;;;;;;;11.63;62.76;101560.34;5106671;28;20127;-63
2022/02/02 12:47:55;;;;;;;33.77;6.37;;;;;;;15.13;49.43;101551.47;5109629;28;20043;-65
2022/02/02 12:53:49;;;;;;;43.67;6.20;;;;;;;14.42;51.70;101566.03;5075036;27;20353;-63
2022/02/02 12:56:46;;;;;;;33.90;6.35;;;;;;;14.30;52.72;101557.50;5068307;28;20037;-63
2022/02/02 13:02:11;;;;;;;44.10;6.60;;;;;;;14.12;52.89;101551.38;5071719;28;20053;-63
2022/02/02 13:04:39;;;;;;;47.53;6.05;;;;;;;14.24;51.77;101552.75;5057118;28;20059;-65
2022/02/02 13:07:12;;;;;;;43.20;6.05;;;;;;;14.59;51.08;101548.31;5066399;28;20049;-64
2022/02/02 13:09:43;;;;;;;33.30;5.82;;;;;;;14.77;51.14;101546.38;5067559;28;20045;-64
2022/02/02 13:12:34;;;;;;;38.40;5.47;;;;;;;15.27;48.87;101552.66;5067391;28;20477;-64
2022/02/02 13:15:30;;;;;;;29.80;5.50;;;;;;;15.80;47.70;101547.00;5065085;28;20047;-64
2022/02/02 13:23:58;;;;;;;32.20;5.20;;;;;;;14.34;49.98;101534.81;5067458;27;20400;-65
2022/02/02 13:26:55;;;;;;;40.67;5.57;;;;;;;13.80;50.56;101542.16;5061751;28;20045;-65
2022/02/02 13:35:22;;;;;;;33.20;5.32;;;;;;;14.44;49.72;101539.19;5134927;27;19923;-65
2022/02/02 13:44:03;;;;;;;30.60;5.50;;;;;;;14.80;47.99;101544.38;5119974;28;20068;-65
2022/02/02 13:48:58;;;;;;;38.83;5.38;;;;;;;14.82;48.67;101555.72;5114618;27;20359;-64
2022/02/02 13:54:45;;;;;;;28.25;4.32;;;;;;;13.86;49.01;101562.03;5104889;28;20046;-64
2022/02/02 14:05:59;;;;;;;28.85;4.40;;;;;;;10.91;57.78;101549.09;5123259;28;20080;-64
2022/02/02 14:11:39;;;;;;;34.17;4.15;;;;;;;10.60;57.95;101558.91;5106541;28;20079;-64
2022/02/02 14:33:21;;;;;;;34.25;3.70;;;;;;;9.78;58.78;101590.53;5112115;27;20145;-64
2022/02/02 14:35:50;;;;;;;30.05;4.03;;;;;;;9.81;58.71;101605.34;5107537;28;20040;-64
2022/02/02 14:38:18;;;;;;;28.52;3.92;;;;;;;9.90;59.15;101606.41;5111324;28;20472;-64
2022/02/02 14:41:08;;;;;;;30.23;3.95;;;;;;;10.02;59.34;101604.50;5099369;28;20032;-64
2022/02/02 14:43:41;;;;;;;29.55;4.35;;;;;;;10.00;59.04;101604.63;5105434;28;20067;-63
2022/02/02 14:46:11;;;;;;;41.22;3.97;;;;;;;9.78;58.40;101608.25;5103176;28;20116;-63
2022/02/02 14:48:41;;;;;;;26.45;3.72;;;;;;;9.88;59.21;101609.16;5101116;28;20048;-64
2022/02/02 14:54:48;;;;;;;22.38;3.47;;;;;;;9.90;60.03;101617.00;5103458;28;20085;-64
2022/02/02 15:24:55;;;;;;;23.70;4.35;;;;;;;9.64;61.69;101620.00;5107773;28;20050;-67
2022/02/02 15:27:28;;;;;;;30.83;4.32;;;;;;;9.58;61.16;101623.13;5108221;28;20048;-67
2022/02/02 15:29:59;;;;;;;28.00;4.03;;;;;;;9.63;62.10;101631.56;5110312;28;20039;-65
2022/02/02 15:32:29;;;;;;;37.30;4.47;;;;;;;9.48;62.35;101638.09;5108474;28;20055;-65
2022/02/02 15:34:58;;;;;;;27.45;4.93;;;;;;;9.40;62.79;101631.63;5107966;28;20122;-65
2022/02/02 15:40:03;;;;;;;36.30;5.00;;;;;;;9.54;63.35;101640.25;5108525;28;20097;-65
2022/02/02 15:43:12;;;;;;;29.80;4.10;;;;;;;9.39;63.72;101642.34;5106307;28;20059;-65
2022/02/02 15:59:26;;;;;;;37.88;5.32;;;;;;;9.33;65.67;101640.19;5108555;28;20510;-65
2022/02/02 16:04:35;;;;;;;30.23;4.25;;;;;;;9.14;67.16;101638.19;5109179;27;20380;-65
2022/02/02 16:07:06;;;;;;;46.88;6.15;;;;;;;9.04;67.22;101635.44;5109574;28;20067;-65
2022/02/02 16:09:43;;;;;;;44.67;5.03;;;;;;;8.94;67.40;101635.31;5109996;28;20060;-65
2022/02/02 16:14:45;;;;;;;37.08;4.70;;;;;;;8.93;68.81;101641.59;5109774;28;20039;-64
2022/02/02 16:34:40;;;;;;;31.92;4.75;;;;;;;8.66;69.94;101652.53;5109262;28;20043;-64
2022/02/02 16:36:47;;;;;;;31.38;5.38;;;;;;;8.47;71.17;101649.63;5102770;28;20528;-65
2022/02/02 16:39:21;;;;;;;30.08;4.72;;;;;;;8.79;69.59;101637.38;5108506;28;20064;-65
2022/02/02 16:44:35;;;;;;;31.33;4.78;;;;;;;8.82;69.60;101644.22;5100295;28;20113;-65
2022/02/02 16:47:02;;;;;;;24.33;4.78;;;;;;;8.76;69.95;101640.25;5105501;28;20172;-64
2022/02/02 16:49:29;;;;;;;43.88;5.97;;;;;;;8.58;70.45;101642.50;5108362;28;20044;-64
2022/02/02 16:51:56;;;;;;;35.25;5.35;;;;;;;8.56;71.21;101644.44;5115413;28;20385;-64
2022/02/02 16:54:28;;;;;;;34.40;6.47;;;;;;;8.52;71.14;101644.81;5108918;28;20067;-65
2022/02/02 16:57:12;;;;;;;32.75;5.53;;;;;;;8.55;71.20;101650.72;5105472;28;20400;-65
2022/02/02 17:25:29;;;;;;;35.83;5.75;;;;;;;7.66;74.83;101668.78;5093060;28;20044;-64
2022/02/02 17:30:25;;;;;;;43.53;6.82;;;;;;;7.48;75.27;101676.25;5090954;28;20100;-65
2022/02/02 17:33:01;;;;;;;37.25;6.10;;;;;;;7.44;75.77;101680.06;5099412;28;20139;-65
2022/02/02 17:38:26;;;;;;;32.35;5.85;;;;;;;7.32;76.34;101683.56;5091230;28;20032;-64
2022/02/02 17:41:22;;;;;;;37.30;6.00;;;;;;;7.32;76.47;101680.09;5090963;28;20391;-65
2022/02/02 17:44:06;;;;;;;48.63;7.63;;;;;;;7.28;76.43;101682.94;5096191;28;20434;-64
2022/02/02 17:58:32;;;;;;;53.20;7.32;;;;;;;7.13;77.93;101697.25;5093314;28;20067;-63
2022/02/02 18:00:56;;;;;;;41.85;6.55;;;;;;;7.11;78.22;101704.41;5093569;28;20047;-64
2022/02/02 18:12:21;;;;;;;33.05;6.72;;;;;;;7.09;77.47;101693.13;5109215;28;20031;-65
2022/02/02 18:19:48;;;;;;;39.08;7.60;;;;;;;7.16;78.66;101696.19;5139156;27;20124;-64
2022/02/02 18:22:16;;;;;;;42.60;8.07;;;;;;;7.15;77.99;101695.34;5133492;27;20036;-66
2022/02/02 18:25:03;;;;;;;46.33;8.77;;;;;;;7.14;78.40;101696.28;5132843;27;20446;-65
2022/02/02 18:27:41;;;;;;;38.85;8.48;;;;;;;7.10;78.70;101698.28;5131780;27;20043;-65
2022/02/02 18:30:24;;;;;;;43.13;7.75;;;;;;;7.11;78.68;101699.13;5129209;27;20047;-66
2022/02/02 18:33:31;;;;;;;32.80;7.97;;;;;;;7.11;78.68;101700.00;5127167;27;20093;-65
2022/02/02 18:35:44;;;;;;;41.20;8.20;;;;;;;7.08;79.37;101710.75;5127101;27;20050;-65
2022/02/02 18:39:57;;;;;;;36.28;7.57;;;;;;;7.07;79.62;101716.13;5130086;27;20041;-65
2022/02/02 18:49:22;;;;;;;37.97;7.72;;;;;;;7.04;79.91;101716.34;5095824;27;20332;-64
2022/02/02 18:57:24;;;;;;;45.35;9.70;;;;;;;7.14;80.38;101717.41;5063781;28;20045;-65
2022/02/02 19:05:19;;;;;;;39.90;10.57;;;;;;;7.25;80.32;101714.84;5132677;27;19922;-65
2022/02/02 19:55:28;;;;;;;30.30;13.32;;;;;;;8.05;84.74;101700.28;5126268;28;20063;-64
2022/02/02 20:06:22;;;;;;;32.42;13.40;;;;;;;8.10;85.11;101708.72;5088842;28;20195;-65
2022/02/02 20:09:26;;;;;;;33.58;13.85;;;;;;;8.02;85.61;101700.50;5077495;28;20509;-65
2022/02/02 20:11:40;;;;;;;29.80;13.63;;;;;;;7.87;86.06;101700.69;5070100;28;20060;-65
2022/02/02 20:14:09;;;;;;;34.73;14.43;;;;;;;7.93;85.96;101709.97;5034728;28;20037;-65
2022/02/02 20:16:35;;;;;;;30.92;14.00;;;;;;;7.91;85.74;101706.59;5067465;28;20047;-68
2022/02/02 20:19:08;;;;;;;38.70;16.15;;;;;;;8.24;85.25;101711.19;5068228;28;20120;-68
2022/02/02 20:21:44;;;;;;;32.35;15.32;;;;;;;8.15;85.40;101703.06;5069788;28;20045;-68
2022/02/02 20:24:11;;;;;;;29.88;14.85;;;;;;;8.07;85.08;101720.34;5052798;28;20044;-63
2022/02/02 20:26:41;;;;;;;33.10;14.55;;;;;;;8.05;85.71;101721.44;5069550;28;20041;-63
2022/02/02 20:29:08;;;;;;;31.30;14.75;;;;;;;8.08;85.44;101716.75;5069412;28;20045;-63
2022/02/02 20:31:35;;;;;;;32.17;13.88;;;;;;;8.14;85.88;101711.97;5067729;28;20463;-64
2022/02/02 20:34:02;;;;;;;36.80;15.73;;;;;;;8.14;85.51;101709.34;5069504;28;20041;-63
2022/02/02 20:36:29;;;;;;;37.35;16.02;;;;;;;8.13;86.17;101710.28;5069261;28;20428;-65
2022/02/02 20:38:56;;;;;;;30.13;15.27;;;;;;;8.04;86.01;101701.22;5051240;28;20382;-64
2022/02/02 20:41:23;;;;;;;38.13;15.73;;;;;;;8.08;86.09;101708.84;5067632;28;20045;-65
2022/02/02 20:43:58;;;;;;;39.15;16.63;;;;;;;8.21;85.87;101708.75;5058095;28;20044;-65
2022/02/02 21:06:05;;;;;;;34.33;15.73;;;;;;;8.10;86.21;101723.75;5150423;27;20127;-65
2022/02/02 21:11:37;;;;;;;37.33;17.52;;;;;;;8.18;86.48;101719.56;5150881;27;20046;-64
2022/02/02 21:14:04;;;;;;;41.08;17.48;;;;;;;8.18;86.54;101730.13;5151219;27;20070;-64
2022/02/02 21:16:37;;;;;;;43.42;18.48;;;;;;;8.26;86.43;101729.56;5150603;27;20043;-64
2022/02/02 21:19:08;;;;;;;37.60;18.52;;;;;;;8.28;85.95;101730.28;5150942;27;20402;-64
2022/02/02 21:21:39;;;;;;;39.05;17.75;;;;;;;8.19;86.78;101728.34;5119840;28;20147;-64
2022/02/02 21:29:32;;;;;;;43.88;19.33;;;;;;;8.32;87.07;101717.69;5115000;27;20402;-65
2022/02/02 21:31:59;;;;;;;41.17;19.23;;;;;;;8.25;87.85;101725.22;5111747;28;20055;-65
2022/02/02 21:34:26;;;;;;;46.88;21.17;;;;;;;8.32;87.87;101726.47;5090303;28;20040;-65
2022/02/02 21:36:55;;;;;;;44.00;20.65;;;;;;;8.19;88.36;101731.81;5105830;28;20051;-64
2022/02/02 21:39:24;;;;;;;42.22;21.23;;;;;;;8.24;89.12;101726.19;5109651;28;20438;-65
2022/02/02 21:41:53;;;;;;;47.40;21.27;;;;;;;8.33;89.26;101719.34;5102815;28;20040;-64